Terminal Aerodrome Forecast
Issued by NWS

Home | Current Version | Previous Version | Text Only | Print | Product List | Glossary On
Versions: 1 2 3 4 5 6 7 8 9 10 11 12 13 14 15 16
544
FTUS42 TJSJ 301723
TAFJBQ
TAF
TJBQ 301723Z 3018/3118 09015G25KT P6SM SCT025 SCT040
     FM302200 09012KT P6SM VCSH SCT025 SCT040
     FM311300 09012G20KT P6SM VCTS BKN030CB BKN040
     FM311630 VRB15G25KT P6SM -TSRA BKN025CB BKN040
      AMD NOT SKED 3102/3111=

USA.gov is the U.S. government's official web portal to all federal, state and local government web resources and services.